Albany, Louisiana
Current Conditions -  °F | °C
As of 12:55 PM on Thursday 23 Oct 2014 (Local Time) from KHDC Reporting Station
Clear Clear  
Wind Chill: 75°   Ceiling: Unl
Heat Index: 75°   Visibility: 10mi
Dew Point: 41°   Wind: 6mph
Humidity: 29%   Direction: 340°NNW
Pressure: 30.1"   Gusts: NA
Location:  30.5°N, 90.58°W
Report Text: KHDC 231755Z AUTO 34005KT 10SM CLR 24/05 A3010 RMK AO2
Loading
Personal Weather Stations






























Interactive Weather Map
Tropical Storm Tracking
New forecast layout! Learn more

10-Day Weather Forecast

Advertisements
Track Severe Weather on mobile